Time;durP1;ratioP1;P1;durP2;ratioP2;P2;SDS_P1;SDS_P2;PMS_P1;PMS_P2;Temp;Humidity;BMP_temperature;BMP_pressure;BME280_temperature;BME280_humidity;BME280_pressure;Samples;Min_cycle;Max_cycle;Signal;HPM_P1;HPM_P2
2021/12/12 00:00:59;;;;;;;16.35;10.63;;;1.50;99.90;;;;;;6260622;23;20020;-89
2021/12/12 00:03:54;;;;;;;16.88;10.80;;;1.50;99.90;;;;;;6255754;23;20051;-87
2021/12/12 00:06:49;;;;;;;18.30;11.52;;;1.50;99.90;;;;;;6247859;22;20024;-86
2021/12/12 00:09:44;;;;;;;24.30;13.55;;;1.50;99.90;;;;;;6246397;23;20020;-87
2021/12/12 00:12:40;;;;;;;21.52;11.90;;;1.50;99.90;;;;;;6243860;23;20031;-88
2021/12/12 00:15:28;;;;;;;20.13;11.55;;;1.50;99.90;;;;;;6248742;23;20028;-87
2021/12/12 00:18:18;;;;;;;18.63;11.88;;;1.50;99.90;;;;;;6203810;23;20430;-86
2021/12/12 00:21:08;;;;;;;16.20;10.95;;;1.50;99.90;;;;;;6245271;23;20032;-87
2021/12/12 00:24:00;;;;;;;15.63;11.48;;;1.50;99.90;;;;;;6246535;23;20024;-86
2021/12/12 00:26:51;;;;;;;16.70;9.38;;;1.50;99.90;;;;;;6246989;23;20050;-90
2021/12/12 00:29:41;;;;;;;16.00;11.18;;;1.50;99.90;;;;;;6245989;23;20020;-88
2021/12/12 00:32:31;;;;;;;17.70;11.35;;;1.50;99.90;;;;;;6247190;23;20302;-87
2021/12/12 00:35:21;;;;;;;17.90;11.15;;;1.50;99.90;;;;;;6245009;22;20028;-88
2021/12/12 00:38:21;;;;;;;16.08;11.05;;;1.50;99.90;;;;;;6244941;23;20028;-89
2021/12/12 00:41:13;;;;;;;15.00;10.85;;;1.50;99.90;;;;;;6245732;23;20084;-87
2021/12/12 00:44:11;;;;;;;17.10;10.70;;;1.50;99.90;;;;;;6244730;23;20414;-88
2021/12/12 00:47:01;;;;;;;18.27;11.27;;;1.50;99.90;;;;;;6247394;23;20082;-89
2021/12/12 00:49:52;;;;;;;17.45;10.60;;;1.50;99.90;;;;;;6258184;23;20032;-86
2021/12/12 00:52:43;;;;;;;15.93;11.30;;;1.50;99.90;;;;;;6260918;23;20020;-86
2021/12/12 00:55:30;;;;;;;18.50;11.45;;;1.50;99.90;;;;;;6261022;23;20027;-87
2021/12/12 00:58:20;;;;;;;17.50;11.15;;;1.50;99.90;;;;;;6265873;22;20062;-86
2021/12/12 01:01:35;;;;;;;16.52;11.07;;;1.50;99.90;;;;;;6269740;22;20065;-88
2021/12/12 01:04:35;;;;;;;13.82;10.75;;;1.50;99.90;;;;;;6268550;22;20023;-87
2021/12/12 01:07:27;;;;;;;15.98;11.27;;;1.60;99.90;;;;;;6265226;22;20023;-87
2021/12/12 01:10:23;;;;;;;17.67;11.65;;;1.60;99.90;;;;;;6271821;22;20095;-88
2021/12/12 01:13:11;;;;;;;17.08;11.20;;;1.60;99.90;;;;;;6261975;23;20024;-88
2021/12/12 01:16:06;;;;;;;17.13;10.90;;;1.60;99.90;;;;;;6259074;23;20355;-88
2021/12/12 01:19:04;;;;;;;17.58;12.73;;;1.60;99.90;;;;;;6256368;23;20029;-88
2021/12/12 01:22:04;;;;;;;16.65;11.70;;;1.50;99.90;;;;;;6248251;23;20086;-87
2021/12/12 01:24:55;;;;;;;16.15;11.38;;;1.50;99.90;;;;;;6245628;23;20078;-88
2021/12/12 01:27:42;;;;;;;17.90;11.30;;;1.50;99.90;;;;;;6245180;23;20031;-88
2021/12/12 01:30:33;;;;;;;14.68;11.40;;;1.50;99.90;;;;;;6245889;23;20020;-88
2021/12/12 01:33:33;;;;;;;19.17;11.75;;;1.50;99.90;;;;;;6204929;23;20024;-89
2021/12/12 01:36:26;;;;;;;13.18;10.15;;;1.40;99.90;;;;;;6246501;23;20035;-86
2021/12/12 01:39:14;;;;;;;;;;;1.40;99.90;;;;;;6228099;23;20105;-86
2021/12/12 01:42:15;;;;;;;23.58;13.65;;;1.40;99.90;;;;;;6247561;22;19919;-86
2021/12/12 01:45:45;;;;;;;22.67;13.40;;;1.40;99.90;;;;;;6245462;23;20032;-86
2021/12/12 01:48:41;;;;;;;20.05;11.27;;;1.40;99.90;;;;;;6137095;23;20032;-87
2021/12/12 01:51:29;;;;;;;18.13;12.27;;;1.40;99.90;;;;;;6247111;22;20781;-88
2021/12/12 01:54:25;;;;;;;18.15;12.00;;;1.40;99.90;;;;;;6246871;22;20366;-87
2021/12/12 01:57:30;;;;;;;19.27;12.02;;;1.40;99.90;;;;;;6245416;23;20024;-87
2021/12/12 02:00:28;;;;;;;19.95;12.43;;;1.40;99.90;;;;;;6247977;22;20554;-86
2021/12/12 02:03:20;;;;;;;19.33;12.52;;;1.40;99.90;;;;;;6246262;23;20078;-86
2021/12/12 02:06:10;;;;;;;21.50;12.85;;;1.40;99.90;;;;;;6246442;22;20024;-87
2021/12/12 02:09:01;;;;;;;19.35;12.30;;;1.40;99.90;;;;;;6245125;23;20020;-85
2021/12/12 02:11:51;;;;;;;18.90;11.45;;;1.40;99.90;;;;;;6247680;23;20115;-85
2021/12/12 02:14:42;;;;;;;16.92;11.32;;;1.40;99.90;;;;;;6247804;23;20094;-86
2021/12/12 02:17:40;;;;;;;19.15;11.65;;;1.50;99.90;;;;;;6246522;23;20028;-84
2021/12/12 02:20:39;;;;;;;21.52;13.20;;;1.40;99.90;;;;;;6245982;23;20054;-87
2021/12/12 02:23:49;;;;;;;22.30;12.77;;;1.40;99.90;;;;;;6247438;23;20063;-87
2021/12/12 02:36:05;;;;;;;23.10;11.93;;;1.30;99.90;;;;;;6259844;22;20063;-83
2021/12/12 02:38:55;;;;;;;16.23;11.40;;;1.30;99.90;;;;;;6243194;23;20012;-87
2021/12/12 02:41:48;;;;;;;18.90;11.68;;;1.30;99.90;;;;;;6246728;22;20036;-86
2021/12/12 02:44:39;;;;;;;19.83;12.73;;;1.30;99.90;;;;;;6249198;23;20047;-88
2021/12/12 02:47:33;;;;;;;25.33;14.13;;;1.20;99.90;;;;;;6272504;22;20043;-86
2021/12/12 02:50:34;;;;;;;24.23;12.75;;;1.10;99.90;;;;;;6272177;22;20024;-87
2021/12/12 02:53:28;;;;;;;19.65;12.40;;;1.10;99.90;;;;;;6268892;22;20078;-86
2021/12/12 02:56:20;;;;;;;15.73;11.18;;;1.00;99.90;;;;;;6260717;23;20032;-87
2021/12/12 02:59:15;;;;;;;21.85;12.15;;;1.00;99.90;;;;;;6259560;23;20032;-87
2021/12/12 03:02:11;;;;;;;24.45;12.13;;;0.90;99.90;;;;;;6252892;23;20028;-89
2021/12/12 03:05:05;;;;;;;17.27;11.40;;;0.90;99.90;;;;;;6247408;23;20120;-88
2021/12/12 03:07:52;;;;;;;19.80;11.55;;;0.80;99.90;;;;;;6247256;23;20024;-88
2021/12/12 03:10:44;;;;;;;19.58;12.95;;;0.80;99.90;;;;;;6249263;22;20032;-87
2021/12/12 03:13:32;;;;;;;19.27;11.77;;;0.70;99.90;;;;;;6245872;23;20560;-90
2021/12/12 03:16:20;;;;;;;20.92;11.93;;;0.70;99.90;;;;;;6244808;23;20052;-88
2021/12/12 03:19:08;;;;;;;21.25;12.18;;;0.60;99.90;;;;;;6247030;23;20107;-88
2021/12/12 03:21:59;;;;;;;22.40;13.73;;;0.60;99.90;;;;;;6223499;23;20119;-87
2021/12/12 03:24:47;;;;;;;27.02;12.65;;;0.60;99.90;;;;;;6247619;23;20036;-88
2021/12/12 03:27:36;;;;;;;21.13;12.63;;;0.60;99.90;;;;;;6247974;22;20536;-88
2021/12/12 03:30:24;;;;;;;15.68;10.85;;;0.60;99.90;;;;;;6246100;23;20351;-87
2021/12/12 03:33:11;;;;;;;17.08;10.68;;;0.60;99.90;;;;;;6250167;23;20016;-88
2021/12/12 03:36:02;;;;;;;16.98;9.85;;;0.60;99.90;;;;;;6244509;23;20067;-88
2021/12/12 03:38:56;;;;;;;12.55;9.07;;;0.60;99.90;;;;;;6248034;22;20055;-88
2021/12/12 03:41:44;;;;;;;13.35;9.27;;;0.60;99.90;;;;;;6247055;23;20093;-87
2021/12/12 03:44:37;;;;;;;14.23;8.82;;;0.60;99.90;;;;;;6224471;23;20082;-90
2021/12/12 03:47:30;;;;;;;14.32;9.70;;;0.60;99.90;;;;;;6246125;23;20051;-87
2021/12/12 03:50:23;;;;;;;13.98;9.15;;;0.60;99.90;;;;;;6247492;23;20410;-88
2021/12/12 03:53:13;;;;;;;14.17;7.13;;;0.70;99.90;;;;;;6245945;23;20027;-89
2021/12/12 03:56:02;;;;;;;16.25;9.82;;;0.60;99.90;;;;;;6227808;23;20051;-91
2021/12/12 03:58:53;;;;;;;13.00;8.95;;;0.60;99.90;;;;;;6246578;23;20042;-89
2021/12/12 04:01:45;;;;;;;13.73;9.32;;;0.50;99.90;;;;;;6248998;23;20339;-89
2021/12/12 04:04:40;;;;;;;9.52;6.93;;;0.50;99.90;;;;;;6250001;22;20012;-89
2021/12/12 04:07:29;;;;;;;16.27;9.75;;;0.40;99.90;;;;;;6250894;22;20024;-88
2021/12/12 04:10:20;;;;;;;19.13;11.63;;;0.30;99.90;;;;;;6233820;23;20035;-85
2021/12/12 04:13:08;;;;;;;21.98;11.45;;;0.30;99.90;;;;;;6259295;23;20024;-86
2021/12/12 04:15:57;;;;;;;20.05;12.75;;;0.10;99.90;;;;;;6268322;23;20077;-87
2021/12/12 04:18:47;;;;;;;22.08;12.10;;;0.10;99.90;;;;;;6271221;22;20107;-87
2021/12/12 04:21:39;;;;;;;21.67;12.27;;;0.00;99.90;;;;;;6268873;23;20028;-84
2021/12/12 04:24:37;;;;;;;19.48;12.23;;;-0.10;99.90;;;;;;6269048;22;20016;-85
2021/12/12 04:27:25;;;;;;;21.60;11.88;;;-0.30;99.90;;;;;;6267464;22;20086;-86
2021/12/12 04:30:14;;;;;;;21.83;12.52;;;-0.40;99.90;;;;;;6269253;22;20020;-87
2021/12/12 04:33:05;;;;;;;19.02;11.60;;;-0.50;99.90;;;;;;6259076;23;20031;-90
2021/12/12 04:35:52;;;;;;;25.75;13.05;;;-0.60;99.90;;;;;;6251800;22;20461;-90
2021/12/12 04:38:39;;;;;;;23.35;13.00;;;-0.70;99.90;;;;;;6225323;23;20054;-88
2021/12/12 04:41:30;;;;;;;19.40;12.98;;;-0.70;99.90;;;;;;6248574;23;20020;-88
2021/12/12 04:44:42;;;;;;;25.17;13.95;;;-0.70;99.90;;;;;;6230497;23;20093;-85
2021/12/12 04:51:16;;;;;;;26.60;13.82;;;-0.70;99.90;;;;;;6248070;22;20020;-88
2021/12/12 04:54:21;;;;;;;26.65;14.43;;;-0.80;99.90;;;;;;6248953;22;20038;-87
2021/12/12 04:57:18;;;;;;;28.00;14.63;;;-0.60;99.90;;;;;;6246489;22;20419;-88
2021/12/12 05:00:24;;;;;;;29.65;15.20;;;-0.50;99.90;;;;;;6245472;23;20125;-84
2021/12/12 05:03:58;;;;;;;28.90;14.82;;;-0.50;99.90;;;;;;6243994;22;20097;-88
2021/12/12 05:06:55;;;;;;;30.08;15.20;;;-0.50;99.90;;;;;;6244648;23;20028;-87
2021/12/12 05:09:53;;;;;;;24.90;14.90;;;-0.60;99.90;;;;;;6245620;23;20024;-88
2021/12/12 05:12:46;;;;;;;24.70;14.40;;;-0.70;99.90;;;;;;6247016;23;20047;-88
2021/12/12 05:15:53;;;;;;;25.23;15.27;;;-0.80;99.90;;;;;;6246780;23;20322;-88
2021/12/12 05:18:48;;;;;;;29.88;15.32;;;-0.70;99.90;;;;;;6246522;23;20133;-87
2021/12/12 05:21:39;;;;;;;24.85;15.38;;;-0.70;99.90;;;;;;6245584;23;20079;-87
2021/12/12 05:24:29;;;;;;;30.73;16.08;;;-0.80;99.90;;;;;;6246448;23;20451;-88
2021/12/12 05:27:24;;;;;;;26.90;14.77;;;-0.80;99.90;;;;;;6246797;23;20400;-88
2021/12/12 05:30:20;;;;;;;30.33;14.95;;;-0.80;99.90;;;;;;6244700;23;20035;-86
2021/12/12 05:33:10;;;;;;;27.48;14.93;;;-0.70;99.90;;;;;;6246433;22;20047;-88
2021/12/12 05:36:00;;;;;;;29.77;14.98;;;-0.60;99.90;;;;;;6246510;22;20035;-88
2021/12/12 05:38:49;;;;;;;29.50;14.80;;;-0.60;99.90;;;;;;6244838;22;20031;-88
2021/12/12 05:41:36;;;;;;;30.10;15.75;;;-0.50;99.90;;;;;;6243497;23;20059;-87
2021/12/12 05:44:25;;;;;;;27.15;15.23;;;-0.40;99.90;;;;;;6222775;23;20023;-85
2021/12/12 05:47:13;;;;;;;30.90;16.55;;;-0.50;99.90;;;;;;6244379;23;20035;-87
2021/12/12 05:50:06;;;;;;;31.77;15.30;;;-0.60;99.90;;;;;;6243623;23;20031;-87
2021/12/12 05:52:54;;;;;;;23.55;14.00;;;-0.70;99.90;;;;;;6244380;23;20031;-88
2021/12/12 05:55:46;;;;;;;26.15;15.50;;;-0.80;99.90;;;;;;6243532;23;20580;-88
2021/12/12 05:58:37;;;;;;;28.38;16.70;;;-0.90;99.90;;;;;;6245156;23;20040;-88
2021/12/12 06:01:26;;;;;;;29.52;15.60;;;-1.00;99.90;;;;;;6246181;23;20028;-86
2021/12/12 06:04:13;;;;;;;29.98;15.45;;;-1.00;99.90;;;;;;6245656;23;20254;-88
2021/12/12 06:07:04;;;;;;;28.00;16.08;;;-1.00;99.90;;;;;;6245652;22;20424;-89
2021/12/12 06:09:55;;;;;;;32.22;16.60;;;-1.20;99.90;;;;;;6245895;23;20450;-89
2021/12/12 06:12:45;;;;;;;29.08;16.33;;;-1.20;99.90;;;;;;6245703;23;20032;-90
2021/12/12 06:15:32;;;;;;;36.08;16.75;;;-1.30;99.90;;;;;;6245125;23;20024;-89
2021/12/12 06:18:26;;;;;;;29.30;16.70;;;-1.30;99.90;;;;;;6245904;23;20089;-87
2021/12/12 06:21:15;;;;;;;30.00;17.05;;;-1.30;99.90;;;;;;6246560;23;20028;-86
2021/12/12 06:24:05;;;;;;;30.98;16.88;;;-1.30;99.90;;;;;;6245708;23;20147;-86
2021/12/12 06:26:55;;;;;;;32.50;16.73;;;-1.20;99.90;;;;;;6247196;23;20121;-88
2021/12/12 06:29:51;;;;;;;35.47;19.13;;;-1.10;99.90;;;;;;6246051;23;20031;-85
2021/12/12 06:32:38;;;;;;;33.80;18.30;;;-0.90;99.90;;;;;;6226004;23;20031;-88
2021/12/12 06:35:25;;;;;;;33.70;19.00;;;-0.90;99.90;;;;;;6247623;23;20028;-89
2021/12/12 06:38:15;;;;;;;31.58;18.00;;;-0.90;99.90;;;;;;6226939;23;20055;-90
2021/12/12 06:41:06;;;;;;;30.52;16.52;;;-0.90;99.90;;;;;;6246142;23;20028;-86
2021/12/12 06:43:56;;;;;;;32.83;17.27;;;-0.90;99.90;;;;;;6229446;23;20035;-87
2021/12/12 06:46:44;;;;;;;34.22;17.55;;;-0.80;99.90;;;;;;6246528;23;20027;-87
2021/12/12 06:49:33;;;;;;;32.88;18.10;;;-0.80;99.90;;;;;;6248716;22;20031;-86
2021/12/12 06:52:23;;;;;;;35.78;17.33;;;-0.80;99.90;;;;;;6247838;23;20024;-87
2021/12/12 06:55:11;;;;;;;34.17;17.77;;;-0.90;99.90;;;;;;6249558;22;20020;-86
2021/12/12 06:58:00;;;;;;;28.33;15.75;;;-0.90;99.90;;;;;;6224101;23;20083;-87
2021/12/12 07:00:54;;;;;;;33.97;16.52;;;-0.80;99.90;;;;;;6244982;23;20075;-87
2021/12/12 07:03:43;;;;;;;25.77;15.00;;;-0.80;99.90;;;;;;6247137;23;20020;-86
2021/12/12 07:06:31;;;;;;;23.55;13.63;;;-0.70;99.90;;;;;;6246467;23;20099;-86
2021/12/12 07:09:21;;;;;;;32.35;15.65;;;-0.70;99.90;;;;;;6247066;22;20039;-86
2021/12/12 07:12:21;;;;;;;22.35;14.45;;;-0.70;99.90;;;;;;6245588;23;20109;-84
2021/12/12 07:15:17;;;;;;;26.92;13.88;;;-0.70;99.90;;;;;;6252224;22;20095;-86
2021/12/12 07:18:11;;;;;;;21.17;12.27;;;-0.70;99.90;;;;;;6244788;23;20059;-84
2021/12/12 07:21:20;;;;;;;19.35;12.18;;;-0.70;99.90;;;;;;6245578;22;20327;-85
2021/12/12 07:24:22;;;;;;;20.42;11.63;;;-0.70;99.90;;;;;;6242910;23;20028;-83
2021/12/12 07:27:13;;;;;;;17.65;10.23;;;-0.60;99.90;;;;;;6241244;23;20052;-83
2021/12/12 07:30:01;;;;;;;17.83;10.25;;;-0.60;99.90;;;;;;6244344;23;20024;-84
2021/12/12 07:32:52;;;;;;;14.70;9.98;;;-0.50;99.90;;;;;;6245306;23;20044;-85
2021/12/12 07:35:42;;;;;;;14.32;9.00;;;-0.40;99.90;;;;;;6244995;23;20032;-86
2021/12/12 07:38:31;;;;;;;16.42;8.98;;;-0.50;99.90;;;;;;6244688;23;20024;-86
2021/12/12 07:41:19;;;;;;;12.82;8.57;;;-0.40;99.90;;;;;;6245499;23;20115;-86
2021/12/12 08:25:11;;;;;;;11.07;6.07;;;1.40;99.90;;;;;;6241260;22;20717;-87
2021/12/12 08:28:18;;;;;;;6.53;4.93;;;1.40;99.90;;;;;;6225659;23;20079;-89
2021/12/12 09:14:30;;;;;;;9.90;4.97;;;1.40;99.90;;;;;;6188525;22;20043;-86
2021/12/12 09:41:55;;;;;;;6.93;4.80;;;2.90;99.90;;;;;;6240833;22;20115;-88
2021/12/12 09:45:04;;;;;;;8.38;5.32;;;3.00;99.90;;;;;;6243124;23;20295;-90
2021/12/12 09:52:31;;;;;;;7.03;4.57;;;3.10;99.90;;;;;;6244938;23;20318;-88
2021/12/12 09:55:40;;;;;;;7.05;3.85;;;3.10;99.90;;;;;;6238767;23;20024;-92
2021/12/12 09:58:55;;;;;;;6.00;4.10;;;3.20;99.90;;;;;;6244899;23;20050;-89
2021/12/12 10:01:57;;;;;;;7.80;3.97;;;3.30;99.90;;;;;;6224789;23;20016;-89
2021/12/12 10:05:09;;;;;;;4.47;2.97;;;3.40;99.90;;;;;;6222662;23;20024;-90
2021/12/12 10:08:15;;;;;;;5.13;3.70;;;3.80;99.90;;;;;;6247609;23;20035;-88
2021/12/12 10:11:16;;;;;;;4.70;3.63;;;3.90;99.90;;;;;;6224417;23;20231;-88
2021/12/12 10:14:18;;;;;;;5.25;3.63;;;3.80;99.90;;;;;;6228547;23;20106;-86
2021/12/12 10:17:12;;;;;;;5.65;3.70;;;3.50;99.90;;;;;;6245456;23;20024;-88
2021/12/12 10:20:35;;;;;;;4.13;3.72;;;3.40;99.90;;;;;;6246143;23;20099;-87
2021/12/12 10:28:04;;;;;;;3.83;3.40;;;3.20;99.90;;;;;;6249854;23;20016;-89
2021/12/12 10:35:39;;;;;;;4.10;3.15;;;3.10;99.90;;;;;;6127672;23;20002;-87
2021/12/12 10:38:33;;;;;;;5.60;4.35;;;3.10;99.90;;;;;;6106445;23;20030;-88
2021/12/12 10:41:34;;;;;;;5.25;4.18;;;3.00;99.90;;;;;;6159438;23;20028;-90
2021/12/12 10:44:28;;;;;;;5.25;4.05;;;3.10;99.90;;;;;;6194681;23;20021;-87
2021/12/12 10:47:49;;;;;;;5.78;4.22;;;3.10;99.90;;;;;;6195005;23;20163;-88
2021/12/12 10:51:01;;;;;;;6.45;3.88;;;3.30;99.90;;;;;;6213606;23;20040;-87
2021/12/12 10:54:01;;;;;;;4.68;3.78;;;3.30;99.90;;;;;;6216838;23;20025;-90
2021/12/12 12:05:08;;;;;;;3.80;3.30;;;4.10;99.90;;;;;;6226413;23;20020;-88
2021/12/12 12:20:45;;;;;;;5.25;3.50;;;4.90;99.90;;;;;;6213869;23;20301;-89
2021/12/12 12:24:12;;;;;;;4.47;3.38;;;4.90;99.90;;;;;;6195962;23;20404;-90
2021/12/12 12:27:55;;;;;;;5.25;3.55;;;4.80;99.90;;;;;;6194366;23;20610;-89
2021/12/12 12:35:09;;;;;;;4.97;3.17;;;4.60;99.90;;;;;;6215851;23;20024;-89
2021/12/12 12:38:34;;;;;;;4.15;3.40;;;4.50;99.90;;;;;;6193881;23;20028;-86
2021/12/12 12:42:04;;;;;;;7.03;4.28;;;4.50;99.90;;;;;;6193693;23;20025;-89
2021/12/12 12:49:23;;;;;;;4.13;3.28;;;4.60;99.90;;;;;;6213990;23;20028;-87
2021/12/12 12:52:58;;;;;;;7.93;4.40;;;4.50;99.90;;;;;;6193736;23;20036;-87
2021/12/12 12:56:04;;;;;;;5.28;4.03;;;4.60;99.90;;;;;;6138932;23;20428;-87
2021/12/12 12:59:16;;;;;;;4.38;3.67;;;4.60;99.90;;;;;;6194460;23;20308;-85
2021/12/12 13:02:22;;;;;;;5.22;3.90;;;4.60;99.90;;;;;;6192798;23;20032;-86
2021/12/12 13:05:21;;;;;;;5.53;3.85;;;4.50;99.90;;;;;;6212161;23;20039;-85
2021/12/12 13:08:45;;;;;;;5.97;4.20;;;4.30;99.90;;;;;;6192713;23;20302;-86
2021/12/12 13:12:16;;;;;;;5.50;3.90;;;4.20;99.90;;;;;;6193640;23;20459;-84
2021/12/12 13:15:24;;;;;;;6.75;4.63;;;4.20;99.90;;;;;;6196162;23;20039;-85
2021/12/12 13:18:16;;;;;;;5.45;3.55;;;4.10;99.90;;;;;;6197074;23;20032;-87
2021/12/12 13:21:12;;;;;;;5.07;4.13;;;4.00;99.90;;;;;;6215893;23;20351;-87
2021/12/12 13:24:07;;;;;;;7.60;5.05;;;4.10;99.90;;;;;;6198303;23;20099;-87
2021/12/12 13:27:37;;;;;;;4.93;3.70;;;4.20;99.90;;;;;;6228345;23;20029;-86
2021/12/12 13:30:43;;;;;;;5.53;4.18;;;4.20;99.90;;;;;;6228559;23;20070;-85
2021/12/12 13:33:42;;;;;;;5.20;4.00;;;4.30;99.90;;;;;;6210087;23;20025;-87
2021/12/12 13:36:33;;;;;;;4.70;3.58;;;4.30;99.90;;;;;;6214396;23;20028;-86
2021/12/12 13:39:35;;;;;;;6.10;3.90;;;4.30;99.90;;;;;;6236238;23;20018;-87
2021/12/12 13:42:51;;;;;;;6.22;4.10;;;4.30;99.90;;;;;;6235981;23;20021;-84
2021/12/12 13:45:46;;;;;;;5.78;3.90;;;4.20;99.90;;;;;;6228491;23;20028;-85
2021/12/12 13:49:09;;;;;;;5.53;4.03;;;4.30;99.90;;;;;;6215062;23;20020;-85
2021/12/12 13:52:13;;;;;;;9.85;5.07;;;4.30;99.90;;;;;;6160323;23;20029;-84
2021/12/12 13:55:14;;;;;;;6.10;4.43;;;4.30;99.90;;;;;;6212203;23;20024;-84
2021/12/12 13:58:45;;;;;;;8.82;4.85;;;4.20;99.90;;;;;;6189827;23;20163;-83
2021/12/12 14:01:58;;;;;;;4.07;3.38;;;4.20;99.90;;;;;;6209082;23;20036;-85
2021/12/12 14:05:14;;;;;;;7.75;4.63;;;4.10;99.90;;;;;;6212172;23;20207;-85
2021/12/12 14:08:18;;;;;;;8.70;4.97;;;4.20;99.90;;;;;;6191974;23;20024;-85
2021/12/12 14:11:17;;;;;;;23.83;12.57;;;4.10;99.90;;;;;;6189769;23;20339;-81
2021/12/12 14:14:32;;;;;;;15.70;8.93;;;4.20;99.90;;;;;;6193533;23;20047;-85
2021/12/12 14:17:27;;;;;;;31.23;14.75;;;4.20;99.90;;;;;;6191022;23;20025;-86
2021/12/12 14:20:37;;;;;;;19.73;11.75;;;4.10;99.90;;;;;;6196051;23;20029;-88
2021/12/12 14:23:41;;;;;;;19.65;9.85;;;4.10;99.90;;;;;;6196791;23;20107;-87
2021/12/12 14:26:39;;;;;;;24.50;13.70;;;4.10;99.90;;;;;;6217475;23;20020;-87
2021/12/12 14:29:34;;;;;;;10.73;7.40;;;4.10;99.90;;;;;;6193705;23;20024;-87
2021/12/12 14:32:33;;;;;;;24.85;12.10;;;4.10;99.90;;;;;;6196431;23;20021;-89
2021/12/12 14:35:43;;;;;;;10.73;6.55;;;4.10;99.90;;;;;;6213164;23;20319;-85
2021/12/12 14:38:39;;;;;;;12.13;6.50;;;4.10;99.90;;;;;;6213800;23;20048;-86
2021/12/12 14:42:02;;;;;;;7.88;5.80;;;4.10;99.90;;;;;;6195366;23;20028;-86
2021/12/12 14:45:02;;;;;;;11.07;6.43;;;4.10;99.90;;;;;;6216317;23;20086;-87
2021/12/12 14:48:07;;;;;;;9.60;6.57;;;4.10;99.90;;;;;;6216286;23;20083;-87
2021/12/12 14:51:20;;;;;;;10.35;5.97;;;4.10;99.90;;;;;;6215647;23;20025;-85
2021/12/12 14:54:15;;;;;;;12.18;6.68;;;4.10;99.90;;;;;;6221485;23;20091;-86
2021/12/12 14:57:11;;;;;;;8.25;5.22;;;4.10;99.90;;;;;;6218123;23;20024;-87
2021/12/12 15:00:27;;;;;;;7.07;4.93;;;4.10;99.90;;;;;;6193958;23;20094;-87
2021/12/12 15:03:47;;;;;;;11.25;7.45;;;4.00;99.90;;;;;;6152572;23;20022;-88
2021/12/12 15:07:15;;;;;;;11.00;6.45;;;4.00;99.90;;;;;;6154571;23;20021;-88
2021/12/12 15:10:46;;;;;;;21.77;12.98;;;4.00;99.90;;;;;;6156709;23;20029;-87
2021/12/12 15:13:44;;;;;;;11.43;6.70;;;4.00;99.90;;;;;;6154898;23;20144;-86
2021/12/12 15:16:44;;;;;;;13.52;9.93;;;4.00;99.90;;;;;;6153786;23;20100;-86
2021/12/12 15:19:32;;;;;;;15.05;8.82;;;4.00;99.90;;;;;;6154032;23;20029;-86
2021/12/12 15:22:49;;;;;;;13.80;7.32;;;4.00;99.90;;;;;;6154301;23;20025;-86
2021/12/12 15:25:55;;;;;;;19.45;11.68;;;4.00;99.90;;;;;;6154407;23;20032;-88
2021/12/12 15:28:50;;;;;;;17.35;10.55;;;3.90;99.90;;;;;;6154402;23;20036;-88
2021/12/12 15:31:39;;;;;;;;;;;3.90;99.90;;;;;;6152971;23;20021;-85
2021/12/12 15:34:40;;;;;;;14.30;8.20;;;3.90;99.90;;;;;;6153758;23;19921;-87
2021/12/12 15:37:33;;;;;;;16.08;7.53;;;3.90;99.90;;;;;;6154793;23;20120;-88
2021/12/12 15:40:52;;;;;;;15.65;9.35;;;3.90;99.90;;;;;;6155397;23;20029;-86
2021/12/12 15:44:07;;;;;;;12.02;6.70;;;3.70;99.90;;;;;;6154455;23;20025;-87
2021/12/12 15:47:00;;;;;;;12.75;7.70;;;3.60;99.90;;;;;;6154173;23;20131;-86
2021/12/12 15:49:59;;;;;;;13.30;8.60;;;3.50;99.90;;;;;;6153644;23;20159;-87
2021/12/12 15:52:51;;;;;;;16.35;8.75;;;3.50;99.90;;;;;;6154375;23;20025;-88
2021/12/12 15:55:58;;;;;;;11.27;7.57;;;3.60;99.90;;;;;;6155720;23;20021;-86
2021/12/12 15:58:57;;;;;;;24.25;11.05;;;3.60;99.90;;;;;;6134065;23;20026;-86
2021/12/12 16:02:09;;;;;;;12.25;7.53;;;3.60;99.90;;;;;;6168443;23;20312;-87
2021/12/12 16:05:08;;;;;;;12.60;7.72;;;3.70;99.90;;;;;;6184419;23;20136;-86
2021/12/12 16:08:12;;;;;;;21.88;11.93;;;3.70;99.90;;;;;;6183484;23;20021;-85
2021/12/12 16:11:17;;;;;;;23.85;15.27;;;3.70;99.90;;;;;;6184796;23;20108;-86
2021/12/12 16:14:16;;;;;;;16.85;9.43;;;3.70;99.90;;;;;;6184734;23;20084;-85
2021/12/12 16:17:10;;;;;;;111.93;55.60;;;3.70;99.90;;;;;;6184686;23;20119;-88
2021/12/12 16:20:13;;;;;;;19.27;10.77;;;3.70;99.90;;;;;;6184339;23;20028;-85
2021/12/12 16:23:17;;;;;;;21.80;11.38;;;3.80;99.90;;;;;;6181439;23;20036;-85
2021/12/12 16:26:08;;;;;;;19.13;9.00;;;3.80;99.90;;;;;;6186611;23;20029;-89
2021/12/12 16:29:14;;;;;;;11.07;6.13;;;3.80;99.90;;;;;;6185777;23;20104;-88
2021/12/12 16:32:11;;;;;;;8.88;6.45;;;3.80;99.90;;;;;;6184013;23;20032;-86
2021/12/12 16:35:10;;;;;;;25.40;12.93;;;3.80;99.90;;;;;;6184022;23;20336;-86
2021/12/12 16:37:58;;;;;;;11.00;7.40;;;3.80;99.90;;;;;;6185350;23;20040;-86
2021/12/12 16:40:51;;;;;;;21.45;11.70;;;3.80;99.90;;;;;;6183198;23;20032;-85
2021/12/12 16:43:51;;;;;;;12.25;7.97;;;3.80;99.90;;;;;;6184345;23;20032;-86
2021/12/12 16:46:49;;;;;;;20.00;10.93;;;3.80;99.90;;;;;;6184994;23;20029;-88
2021/12/12 16:49:43;;;;;;;11.10;6.97;;;3.80;99.90;;;;;;6182505;23;20349;-84
2021/12/12 16:52:34;;;;;;;12.57;7.53;;;3.80;99.90;;;;;;6181756;23;20028;-84
2021/12/12 16:55:28;;;;;;;10.23;6.60;;;3.80;99.90;;;;;;6164333;23;20029;-85
2021/12/12 16:58:21;;;;;;;9.02;6.03;;;3.80;99.90;;;;;;6184577;23;20044;-84
2021/12/12 17:01:31;;;;;;;11.45;6.88;;;3.80;99.90;;;;;;6194396;23;20028;-87
2021/12/12 17:04:21;;;;;;;10.27;6.18;;;3.80;99.90;;;;;;6193022;23;20029;-87
2021/12/12 17:07:17;;;;;;;13.27;6.82;;;3.80;99.90;;;;;;6213930;23;20031;-84
2021/12/12 17:10:13;;;;;;;10.43;7.60;;;3.90;99.90;;;;;;6193912;23;20459;-86
2021/12/12 17:13:01;;;;;;;15.30;8.82;;;3.90;99.90;;;;;;6195509;23;20024;-88
2021/12/12 17:15:50;;;;;;;12.77;7.75;;;3.90;99.90;;;;;;6213832;23;20024;-87
2021/12/12 17:18:41;;;;;;;10.13;7.05;;;3.90;99.90;;;;;;6193252;23;20024;-87
2021/12/12 17:21:37;;;;;;;8.15;5.35;;;3.90;99.90;;;;;;6214230;23;20024;-87
2021/12/12 17:24:35;;;;;;;8.77;6.18;;;3.90;99.90;;;;;;6195081;23;20036;-88
2021/12/12 17:27:34;;;;;;;8.23;5.53;;;3.80;99.90;;;;;;6172941;23;20278;-87
2021/12/12 17:30:26;;;;;;;7.88;5.10;;;3.80;99.90;;;;;;6193916;23;20039;-87
2021/12/12 17:33:18;;;;;;;15.27;8.10;;;3.90;99.90;;;;;;6192533;23;20029;-81
2021/12/12 17:36:14;;;;;;;45.75;22.25;;;3.80;99.90;;;;;;6210563;23;20039;-82
2021/12/12 17:39:47;;;;;;;12.30;6.85;;;3.90;99.90;;;;;;6190676;23;20028;-83
2021/12/12 17:43:14;;;;;;;14.00;7.30;;;3.90;99.90;;;;;;6212045;23;20108;-86
2021/12/12 17:46:47;;;;;;;13.02;8.00;;;3.90;99.90;;;;;;6133390;23;20047;-87
2021/12/12 17:50:24;;;;;;;10.88;7.03;;;3.90;99.90;;;;;;6194340;23;20040;-85
2021/12/12 17:53:30;;;;;;;8.85;5.82;;;3.90;99.90;;;;;;6214460;23;20050;-86
2021/12/12 17:56:35;;;;;;;9.50;5.80;;;3.90;99.90;;;;;;6192688;23;20035;-88
2021/12/12 17:59:51;;;;;;;8.35;4.82;;;3.80;99.90;;;;;;6192426;23;20032;-85
2021/12/12 18:02:42;;;;;;;8.30;4.82;;;3.90;99.90;;;;;;6211499;23;20040;-87
2021/12/12 18:05:54;;;;;;;7.70;4.68;;;3.80;99.90;;;;;;6151715;23;20030;-86
2021/12/12 18:08:53;;;;;;;13.30;6.85;;;3.80;99.90;;;;;;6130917;23;20044;-87
2021/12/12 18:12:12;;;;;;;11.05;6.75;;;3.90;99.90;;;;;;6151393;23;20025;-86
2021/12/12 18:15:01;;;;;;;9.60;4.88;;;3.80;99.90;;;;;;6132132;23;20037;-87
2021/12/12 18:18:29;;;;;;;12.32;5.85;;;3.80;99.90;;;;;;6151397;23;20040;-86
2021/12/12 18:21:39;;;;;;;10.30;5.93;;;3.80;99.90;;;;;;6150686;23;20160;-85
2021/12/12 18:24:43;;;;;;;11.93;6.13;;;3.80;99.90;;;;;;6132021;23;20352;-87
2021/12/12 18:28:00;;;;;;;13.38;8.07;;;3.80;99.90;;;;;;6138645;23;20244;-87
2021/12/12 18:31:00;;;;;;;65.30;37.70;;;3.80;99.90;;;;;;6129633;23;20029;-85
2021/12/12 18:34:06;;;;;;;12.85;7.32;;;3.80;99.90;;;;;;6133872;23;20057;-88
2021/12/12 18:37:16;;;;;;;9.63;5.63;;;3.80;99.90;;;;;;6207653;23;20020;-87
2021/12/12 18:40:26;;;;;;;12.20;6.60;;;3.80;99.90;;;;;;6223860;23;20100;-83
2021/12/12 18:43:55;;;;;;;7.88;5.15;;;3.80;99.90;;;;;;6228956;23;20025;-85
2021/12/12 18:47:01;;;;;;;11.05;6.00;;;3.80;99.90;;;;;;6201563;23;20042;-86
2021/12/12 18:50:31;;;;;;;12.13;6.32;;;3.80;99.90;;;;;;6229494;23;20037;-86
2021/12/12 18:53:58;;;;;;;10.10;4.75;;;3.70;99.90;;;;;;6222200;23;20025;-86
2021/12/12 18:56:50;;;;;;;15.75;8.32;;;3.70;99.90;;;;;;6104101;23;20114;-86
2021/12/12 18:59:47;;;;;;;7.97;5.10;;;3.60;99.90;;;;;;6158324;23;20030;-85
2021/12/12 19:02:46;;;;;;;8.48;5.32;;;3.60;99.90;;;;;;6211163;23;20029;-85
2021/12/12 19:05:51;;;;;;;8.18;4.78;;;3.60;99.90;;;;;;6212808;23;20048;-89
2021/12/12 19:08:55;;;;;;;9.50;6.25;;;3.60;99.90;;;;;;6212924;23;20131;-85
2021/12/12 19:11:50;;;;;;;5.70;3.90;;;3.60;99.90;;;;;;6213793;23;20107;-85